Latest Coastal Weather Observations for Flinders Island Airport

IDT60701

Issued at 2:03 pm EST Sunday 20 August 2017 (issued every 10 minutes, with the page automatically refreshed every 10 minutes)

About coastal observations | Map of coastal stations | Coastal observations for TAS | Marine services | Other Formats
Station Details ID: 099005 Name: FLINDERS ISLAND AIRPORT Lat: -40.09 Lon: 148.00 Height: 9.0 m
Data from the previous 72 hours. | See also: Recent months at Flinders Island Airport
Date/Time
EST
Temp
°C
Wind Pressure Rain since
9am
mm
Weather Cloud Vis
km
Sea
Height
m
Swell
Dir  Spd
kts
Gust
kts
hPa Trend Height
m
Period
s
Dir
20/02:00pm 11.0 WSW 14 17 1020.9 - 0.0 - Partly cloudy 10 - - - -
20/01:30pm 12.0 WSW 12 15 1021.2 - 0.0 - Partly cloudy 10 - - - -
20/01:00pm 11.5 WSW 13 16 1021.6 - 0.0 - Partly cloudy 10 - - - -
20/12:30pm 11.5 WSW 14 18 1022.3 - 0.0 - Partly cloudy 10 - - - -
20/12:00pm 10.7 WSW 15 19 1022.9 - 0.0 - Mostly cloudy 10 - - - -
20/11:30am 10.8 WSW 15 19 1023.3 - 0.0 - Partly cloudy 10 - - - -
20/11:00am 10.3 WSW 14 19 1023.7 - 0.0 - Partly cloudy 10 - - - -
20/10:30am 11.0 WSW 16 19 1023.9 - 0.0 - - 10 - - - -
20/10:00am 10.6 WSW 15 19 1023.8 - 0.0 - Partly cloudy 10 - - - -
20/09:30am 9.9 WSW 16 20 1023.9 - 0.0 - Partly cloudy 10 - - - -
20/09:00am 10.0 WSW 17 21 1024.1 - 0.0 - Mostly clear 10 - - - -
20/08:30am 9.4 WSW 15 19 1024.1 - 0.0 - - 10 - - - -
20/08:00am 8.9 WSW 14 18 1024.0 - 0.0 - - 10 - - - -
20/07:30am 8.5 SW 15 19 1024.0 - 0.0 - - 10 - - - -
20/07:00am 8.3 WSW 16 20 1023.8 - 0.0 - Partly cloudy 10 - - - -
20/06:30am 8.4 WSW 15 19 1023.7 - 0.0 - Partly cloudy 10 - - - -
20/06:00am 8.2 WSW 15 18 1023.5 - 0.0 - Mostly clear 10 - - - -
20/05:30am 7.4 WSW 13 17 1023.6 - 0.0 - Partly cloudy 10 - - - -
20/05:00am 7.8 WSW 15 18 1023.5 - 0.0 - Partly cloudy 10 - - - -
20/04:30am 8.2 WSW 16 20 1023.4 - 0.0 - Partly cloudy 10 - - - -
20/04:00am 8.3 W 13 16 1023.3 - 0.0 - Partly cloudy 10 - - - -
20/03:30am 7.5 W 10 13 1023.5 - 0.0 - Partly cloudy 10 - - - -
20/03:00am 4.8 W 9 13 1023.6 - 0.0 - Cloudy 10 - - - -
20/02:30am 2.7 WNW 6 11 1023.7 - 0.0 - Partly cloudy 10 - - - -
20/02:00am 1.6 NNE 5 7 1023.8 - 0.0 - Partly cloudy 10 - - - -
20/01:30am 1.5 NE 5 6 1024.0 - 0.0 - Partly cloudy 10 - - - -
20/01:00am 2.1 NNE 3 6 1023.9 - 0.0 - - 10 - - - -
20/12:30am 4.9 WSW 9 11 1023.9 - 0.0 - - 10 - - - -
20/12:00am 8.6 WSW 11 14 1024.0 - 0.0 - - 10 - - - -
 
Date/Time
EST
Temp
°C
Wind Pressure Rain since
9am
mm
Weather Cloud Vis
km
Sea
Height
m
Swell
Dir  Spd
kts
Gust
kts
hPa Trend Height
m
Period
s
Dir
19/11:30pm 9.3 SW 13 17 1024.1 - 0.0 - - 10 - - - -
19/11:00pm 9.3 WSW 14 17 1024.1 - 0.0 - Partly cloudy 10 - - - -
19/10:30pm 9.3 SW 13 16 1023.9 - 0.0 - - 10 - - - -
19/10:00pm 9.6 SW 14 16 1023.8 - 0.0 - - 10 - - - -
19/09:30pm 9.8 SW 13 16 1023.6 - 0.0 - - 10 - - - -
19/09:00pm 9.7 WSW 15 18 1023.7 - 0.0 - - 10 - - - -
19/08:30pm 9.6 WSW 15 19 1023.7 - 0.0 - - 10 - - - -
19/08:00pm 9.3 WSW 15 19 1023.8 - 0.0 - - 10 - - - -
19/07:30pm 9.4 WSW 16 19 1023.9 - 0.0 - - 10 - - - -
19/07:00pm 9.2 WSW 17 20 1024.0 - 0.0 - - 10 - - - -
19/06:30pm 8.9 WSW 15 19 1024.0 - 0.0 - - 10 - - - -
19/06:00pm 8.6 WSW 15 18 1024.0 - 0.0 - - 10 - - - -
19/05:30pm 8.4 WSW 15 17 1023.8 - 0.0 - - 10 - - - -
19/05:00pm 8.9 WSW 15 18 1023.6 - 0.0 - - 10 - - - -
19/04:30pm 9.4 WSW 16 19 1023.4 - 0.0 - - 10 - - - -
19/04:00pm 9.7 WSW 15 19 1023.2 - 0.0 - - 10 - - - -
19/03:30pm 9.9 WSW 15 18 1023.0 - 0.0 - - 10 - - - -
19/03:00pm 9.9 WSW 14 18 1022.7 - 0.0 - - 10 - - - -
19/02:30pm 9.9 WSW 15 18 1022.8 - 0.0 - - 10 - - - -
19/02:00pm 10.2 WSW 16 19 1022.9 - 0.0 - - 10 - - - -
19/01:30pm 10.7 SW 14 17 1022.9 - 0.0 - - 10 - - - -
19/01:00pm 10.4 SW 14 17 1023.0 - 0.0 - - 10 - - - -
19/12:30pm 10.0 SW 13 16 1023.1 - 0.0 - - 10 - - - -
19/12:00pm 9.9 SSW 13 16 1023.2 - 0.0 - - 10 - - - -
19/11:30am 9.8 SSW 11 15 1023.2 - 0.0 - - 10 - - - -
19/11:00am 9.7 SSW 12 17 1023.1 - 0.0 - - 10 - - - -
19/10:30am 9.6 SSW 12 15 1023.1 - 0.0 - - 10 - - - -
19/10:00am 9.6 SSW 12 15 1022.9 - 0.0 - - 10 - - - -
19/09:30am 9.2 S 10 14 1022.8 - 0.0 - - 10 - - - -
19/09:00am 8.9 S 11 15 1022.5 - 0.8 - - 10 - - - -
19/08:30am 8.4 S 8 15 1022.1 - 0.8 - - 10 - - - -
19/08:00am 7.9 SSE 7 12 1021.7 - 0.8 - - 10 - - - -
19/07:30am 7.1 S 9 15 1021.3 - 0.8 - Partly cloudy 10 - - - -
19/07:00am 6.9 S 10 14 1020.8 - 0.8 - Partly cloudy 10 - - - -
19/06:30am 7.4 S 11 16 1020.2 - 0.8 - - 10 - - - -
19/06:00am 7.5 SSW 13 18 1019.5 - 0.8 - Mostly clear 10 - - - -
19/05:30am 7.5 SSW 15 18 1019.1 - 0.8 - Partly cloudy 10 - - - -
19/05:00am 7.5 SSW 15 18 1018.8 - 0.8 - Partly cloudy 10 - - - -
19/04:30am 7.6 SSW 12 15 1018.5 - 0.8 - Partly cloudy 10 - - - -
19/04:00am 7.7 SSW 16 20 1018.1 - 0.8 - Partly cloudy 10 - - - -
19/03:30am 7.6 SSW 14 18 1017.7 - 0.8 - Partly cloudy 10 - - - -
19/03:00am 7.6 SSW 14 20 1017.3 - 0.8 - Mostly clear 10 - - - -
19/02:30am 8.0 SSW 16 20 1017.1 - 0.8 - Cloudy 10 - - - -
19/02:16am 7.5 SSW 15 19 1016.9 - 0.8 - Partly cloudy 10 - - - -
19/02:00am 5.9 SSE 8 15 1016.6 - 0.8 - Partly cloudy 10 - - - -
19/01:30am 7.0 S 10 15 1016.3 - 0.8 - - 10 - - - -
19/01:00am 7.9 S 14 21 1016.0 - 0.8 - - 10 - - - -
19/12:30am 7.6 S 12 17 1015.6 - 0.8 - - 10 - - - -
19/12:00am 7.2 S 10 18 1015.3 - 0.8 - - 10 - - - -
 
Date/Time
EST
Temp
°C
Wind Pressure Rain since
9am
mm
Weather Cloud Vis
km
Sea
Height
m
Swell
Dir  Spd
kts
Gust
kts
hPa Trend Height
m
Period
s
Dir
18/11:30pm 6.2 SSE 7 17 1014.9 - 0.8 - - 10 - - - -
18/11:00pm 7.0 SSE 8 14 1014.6 - 0.8 - - 10 - - - -
18/10:30pm 7.3 S 11 20 1014.1 - 0.8 - - 10 - - - -
18/10:00pm 7.2 S 13 20 1013.7 - 0.8 - Partly cloudy 10 - - - -
18/09:30pm 6.6 SSE 5 7 1013.1 - 0.8 - Partly cloudy 10 - - - -
18/09:00pm 6.7 SE 5 9 1012.5 - 0.8 - Cloudy 10 - - - -
18/08:30pm 7.1 SSE 6 9 1011.9 - 0.8 - Cloudy 10 - - - -
18/08:00pm 6.4 ESE 3 6 1011.3 - 0.8 - Partly cloudy 10 - - - -
18/07:45pm 7.0 ESE 4 5 1011.0 - 0.8 - Partly cloudy 10 - - - -
18/07:33pm 7.3 ESE 5 7 1010.8 - 0.8 - Partly cloudy 5 - - - -
18/07:30pm 7.4 SE 5 7 1010.7 - 0.8 - Partly cloudy 6 - - - -
18/07:00pm 8.5 SSE 11 20 1010.1 - 0.0 - Partly cloudy 10 - - - -
18/06:49pm 10.0 SSW 17 26 1009.6 - 0.0 - Partly cloudy 10 - - - -
18/06:30pm 10.0 SW 23 28 1008.9 - 0.0 - Partly cloudy 10 - - - -
18/06:00pm 10.1 WSW 21 27 1008.1 - 0.0 - Partly cloudy 10 - - - -
18/05:30pm 10.4 WSW 21 27 1007.4 - 0.0 - Partly cloudy 10 - - - -
18/05:00pm 10.7 WSW 20 24 1006.8 - 0.0 - - 10 - - - -
18/04:30pm 11.1 SW 19 23 1006.2 - 0.0 - - 10 - - - -
18/04:00pm 11.3 WSW 18 23 1005.7 - 0.0 - - 10 - - - -
18/03:30pm 11.3 WSW 17 21 1005.1 - 0.0 - - 10 - - - -
18/03:00pm 11.7 WSW 16 19 1004.5 - 0.0 - - 10 - - - -
18/02:30pm 12.0 SW 16 18 1004.0 - 0.0 - - 10 - - - -
18/02:00pm 11.6 SW 17 20 1003.6 - 0.0 - - 10 - - - -
18/01:30pm 11.9 WSW 17 21 1003.2 - 0.0 - Partly cloudy 10 - - - -
18/01:00pm 12.1 WSW 18 23 1003.0 - 0.0 - Partly cloudy 10 - - - -
18/12:30pm 11.6 WSW 19 24 1002.7 - 0.0 - Partly cloudy 10 - - - -
18/12:00pm 11.8 WSW 19 23 1002.5 - 0.0 - Mostly clear 10 - - - -
18/11:30am 11.5 WSW 19 24 1002.5 - 0.0 - Partly cloudy 10 - - - -
18/11:00am 10.8 WSW 19 24 1002.1 - 0.0 - Partly cloudy 10 - - - -
18/10:30am 11.3 WSW 20 24 1001.8 - 0.0 - Partly cloudy 10 - - - -
18/10:00am 11.1 WSW 18 22 1001.6 - 0.0 - Partly cloudy 10 - - - -
18/09:30am 10.5 WSW 19 23 1001.3 - 0.0 - Partly cloudy 10 - - - -
18/09:00am 10.0 WSW 17 22 1001.0 - 3.4 - Partly cloudy 10 - - - -
18/08:30am 9.9 WSW 17 21 1000.6 - 3.4 - Partly cloudy 10 - - - -
18/08:00am 9.7 WSW 17 23 1000.1 - 3.4 - Partly cloudy 10 - - - -
18/07:30am 9.6 WSW 19 24 999.7 - 3.4 - Partly cloudy 10 - - - -
18/07:00am 9.5 W 20 24 999.4 - 3.4 - Partly cloudy 10 - - - -
18/06:30am 9.3 WSW 19 23 998.9 - 3.4 - Partly cloudy 10 - - - -
18/06:00am 9.3 W 17 21 998.6 - 3.2 - Cloudy 10 - - - -
18/05:30am 8.9 W 13 17 998.3 - 3.2 - Partly cloudy 10 - - - -
18/05:00am 9.0 WNW 14 17 998.1 - 3.2 - Partly cloudy 10 - - - -
18/04:30am 8.9 WNW 14 17 997.7 - 3.2 - Partly cloudy 10 - - - -
18/04:00am 8.9 W 15 19 997.7 - 3.2 - Partly cloudy 10 - - - -
18/03:30am 9.4 W 19 22 997.5 - 3.2 - Partly cloudy 10 - - - -
18/03:00am 9.5 W 16 21 997.4 - 3.2 - Mostly clear 10 - - - -
18/02:30am 9.3 W 15 18 997.5 - 3.2 - Partly cloudy 10 - - - -
18/02:00am 9.4 W 17 21 997.6 - 3.2 - Partly cloudy 10 - - - -
18/01:30am 8.7 NW 14 21 997.6 - 3.2 - Partly cloudy 10 - - - -
18/01:00am 9.1 WNW 16 21 997.8 - 3.2 - Partly cloudy 10 - - - -
18/12:30am 10.0 W 19 26 997.6 - 3.2 - Partly cloudy 10 - - - -
18/12:00am 10.1 W 17 21 997.3 - 3.2 Recent precip. Cloudy 10 - - - -
 
Date/Time
EST
Temp
°C
Wind Pressure Rain since
9am
mm
Weather Cloud Vis
km
Sea
Height
m
Swell
Dir  Spd
kts
Gust
kts
hPa Trend Height
m
Period
s
Dir
17/11:30pm 9.0 W 13 17 997.5 - 3.0 - Partly cloudy 10 - - - -
17/11:00pm 9.9 WSW 14 19 997.5 - 3.0 - Partly cloudy 10 - - - -
17/10:30pm 9.3 W 17 19 997.6 - 3.0 - Partly cloudy 10 - - - -
17/10:24pm 9.2 W 17 21 997.7 - 3.0 - Partly cloudy 10 - - - -
17/10:11pm 8.5 WSW 21 31 997.7 - 2.8 - Partly cloudy 4 - - - -
17/10:06pm 8.7 WSW 22 31 997.8 - 2.6 - Partly cloudy 5 - - - -
17/10:01pm 10.1 W 19 30 997.7 - 2.0 - Partly cloudy 10 - - - -
17/10:00pm 10.2 W 19 27 997.7 - 2.0 - Partly cloudy 10 - - - -
17/09:30pm 10.6 W 19 24 997.9 - 2.0 - Partly cloudy 10 - - - -
17/09:00pm 10.4 W 21 26 997.7 - 2.0 - Cloudy 10 - - - -
17/08:30pm 9.7 WNW 17 22 997.7 - 2.0 - Partly cloudy 10 - - - -
17/08:00pm 9.6 WNW 18 26 997.4 - 2.0 - - 10 - - - -
17/07:30pm 9.2 WNW 20 27 997.0 - 2.0 - Partly cloudy 10 - - - -
17/07:06pm 8.9 W 21 28 997.4 - 2.0 - Partly cloudy 10 - - - -
17/07:00pm 8.6 W 20 25 997.5 - 2.0 - Partly cloudy 10 - - - -
17/06:50pm 7.9 W 26 36 997.5 - 2.0 - Partly cloudy 4 - - - -
17/06:47pm 8.0 W 25 36 997.5 - 1.6 - Partly cloudy 5 - - - -
17/06:41pm 10.2 WNW 19 34 997.3 - 1.2 - Partly cloudy 10 - - - -
17/06:30pm 10.0 WNW 19 27 997.1 - 1.2 - Partly cloudy 10 - - - -
17/06:24pm 10.1 WNW 19 29 997.0 - 1.2 - Partly cloudy 10 - - - -
17/06:00pm 10.0 WNW 22 30 996.2 - 1.2 - Cloudy 10 - - - -
17/05:30pm 10.7 WNW 20 30 996.0 - 1.2 - Partly cloudy 10 - - - -
17/05:28pm 10.7 NW 20 30 996.0 - 1.2 - Partly cloudy 10 - - - -
17/05:00pm 10.7 WNW 20 27 996.1 - 1.2 - Partly cloudy 10 - - - -
17/04:48pm 10.6 WNW 18 28 996.1 - 1.2 - Partly cloudy 10 - - - -
17/04:30pm 10.2 WNW 17 21 996.1 - 1.2 - Partly cloudy 10 - - - -
17/04:00pm 9.9 WNW 15 19 996.2 - 1.2 - Partly cloudy 10 - - - -
17/03:30pm 9.0 WNW 14 18 996.2 - 1.2 - Partly cloudy 10 - - - -
17/03:17pm 8.5 WNW 16 24 996.1 - 1.2 - Partly cloudy 9 - - - -
17/03:00pm 8.7 W 21 31 995.6 - 1.0 Rain Cloudy 5 - - - -
17/02:51pm 9.1 W 18 28 996.2 - 0.2 - Partly cloudy 5 - - - -
17/02:33pm 9.0 W 27 32 995.8 - 0.2 - Partly cloudy 5 - - - -
17/02:30pm 9.3 W 26 32 995.8 - 0.2 - Partly cloudy 9 - - - -
17/02:20pm 10.9 WNW 20 32 995.9 - 0.2 - Partly cloudy 10 - - - -

Other Formats:

Comma delimited format used in spreadsheet applications
http://www.bom.gov.au/fwo/IDT60701/IDT60701.94980.axf

JavaScript Object Notation format (JSON) in row-major order
http://www.bom.gov.au/fwo/IDT60701/IDT60701.94980.json